createdAt,value
2018-12-26T00:00:29.939Z,79.08
2018-12-26T00:01:29.941Z,78.77
2018-12-26T00:02:29.950Z,78.98
2018-12-26T00:03:30.068Z,78.88
2018-12-26T00:04:30.178Z,78.88
2018-12-26T00:05:30.275Z,78.88
2018-12-26T00:06:30.361Z,78.56
2018-12-26T00:07:30.440Z,78.46
2018-12-26T00:08:30.578Z,78.56
2018-12-26T00:09:32.008Z,78.56
2018-12-26T00:10:30.706Z,79.08
2018-12-26T00:11:30.814Z,78.56
2018-12-26T00:12:30.894Z,78.46
2018-12-26T00:13:30.995Z,79.19
2018-12-26T00:14:31.093Z,78.36
2018-12-26T00:15:31.186Z,78.56
2018-12-26T00:16:31.344Z,79.19
2018-12-26T00:17:31.376Z,78.25
2018-12-26T00:18:31.451Z,78.88
2018-12-26T00:19:31.663Z,78.36
2018-12-26T00:20:31.636Z,78.46
2018-12-26T00:21:31.759Z,78.15
2018-12-26T00:22:31.859Z,79.08
2018-12-26T00:23:31.922Z,78.46
2018-12-26T00:24:32.093Z,78.88
2018-12-26T00:25:32.118Z,78.67
2018-12-26T00:26:32.220Z,78.46
2018-12-26T00:27:32.303Z,78.46
2018-12-26T00:28:32.385Z,78.15
2018-12-26T00:29:32.507Z,78.56
2018-12-26T00:30:32.574Z,78.36
2018-12-26T00:31:32.668Z,78.67
2018-12-26T00:32:32.784Z,78.56
2018-12-26T00:33:32.986Z,78.98
2018-12-26T00:34:32.974Z,78.36
2018-12-26T00:35:33.023Z,78.15
2018-12-26T00:36:33.127Z,78.46
2018-12-26T00:37:33.227Z,78.88
2018-12-26T00:38:33.317Z,78.56
2018-12-26T00:39:33.437Z,78.88
2018-12-26T00:40:33.502Z,78.36
2018-12-26T00:41:33.662Z,78.15
2018-12-26T00:42:33.678Z,78.63
2018-12-26T00:43:33.769Z,78.56
2018-12-26T00:44:33.911Z,78.53
2018-12-26T00:45:33.958Z,78.77
2018-12-26T00:46:34.056Z,78.88
2018-12-26T00:47:34.155Z,79.15
2018-12-26T00:48:34.238Z,79.29
2018-12-26T00:49:34.429Z,78.56
2018-12-26T00:50:34.409Z,78.94
2018-12-26T00:51:34.737Z,78.42
2018-12-26T00:52:34.607Z,78.94
2018-12-26T00:53:34.683Z,78.15
2018-12-26T00:54:34.801Z,78.53
2018-12-26T00:55:34.877Z,78.11
2018-12-26T00:56:34.969Z,78.56
2018-12-26T00:57:35.132Z,79.08
2018-12-26T00:58:35.122Z,78.32
2018-12-26T00:59:35.252Z,78.94
2018-12-26T01:00:35.323Z,78.63
2018-12-26T01:01:35.419Z,78.94
2018-12-26T01:02:35.555Z,78.74
2018-12-26T01:03:35.630Z,78.94
2018-12-26T01:04:35.724Z,78.84
2018-12-26T01:05:35.936Z,79.25
2018-12-26T01:06:35.990Z,79.05
2018-12-26T01:07:36.071Z,79.39
2018-12-26T01:08:36.137Z,78.84
2018-12-26T01:09:36.232Z,78.63
2018-12-26T01:10:36.351Z,78.84
2018-12-26T01:11:36.434Z,78.74
2018-12-26T01:12:36.571Z,78.63
2018-12-26T01:13:36.628Z,78.53
2018-12-26T01:14:36.833Z,78.74
2018-12-26T01:15:36.802Z,79.25
2018-12-26T01:16:36.893Z,78.74
2018-12-26T01:17:37.020Z,78.63
2018-12-26T01:18:37.081Z,78.74
2018-12-26T01:19:37.187Z,78.94
2018-12-26T01:20:37.254Z,79.36
2018-12-26T01:21:37.352Z,79.36
2018-12-26T01:22:37.601Z,79.46
2018-12-26T01:23:37.544Z,79.25
2018-12-26T01:24:37.668Z,79.46
2018-12-26T01:25:37.749Z,79.46
2018-12-26T01:26:37.831Z,79.25
2018-12-26T01:27:37.969Z,79.36
2018-12-26T01:28:38.020Z,79.25
2018-12-26T01:29:38.131Z,79.77
2018-12-26T01:30:38.256Z,79.77
2018-12-26T01:31:38.264Z,79.97
2018-12-26T01:32:38.404Z,79.46
2018-12-26T01:33:38.472Z,79.15
2018-12-26T01:34:38.583Z,79.87
2018-12-26T01:35:38.683Z,79.80
2018-12-26T01:36:38.749Z,79.97
2018-12-26T01:37:38.846Z,79.39
2018-12-26T01:38:38.988Z,79.66
2018-12-26T01:39:39.039Z,79.66
2018-12-26T01:40:39.147Z,80.01
2018-12-26T01:41:39.218Z,80.22
2018-12-26T01:42:39.336Z,80.11
2018-12-26T01:43:39.416Z,80.01
2018-12-26T01:44:39.522Z,80.22
2018-12-26T01:45:39.597Z,80.22
2018-12-26T01:46:39.706Z,80.01
2018-12-26T01:47:39.876Z,80.11
2018-12-26T01:48:39.916Z,80.39
2018-12-26T01:49:40.016Z,80.22
2018-12-26T01:50:40.094Z,80.01
2018-12-26T01:51:40.186Z,79.91
2018-12-26T01:52:40.306Z,79.80
2018-12-26T01:53:40.402Z,80.11
2018-12-26T01:54:40.476Z,79.91
2018-12-26T01:55:40.696Z,80.22
2018-12-26T01:57:44.990Z,79.80
2018-12-26T01:58:40.871Z,79.70
2018-12-26T01:59:40.942Z,79.80
2018-12-26T02:00:41.027Z,80.22
2018-12-26T02:01:41.138Z,80.43
2018-12-26T02:02:41.252Z,79.36
2018-12-26T02:03:41.541Z,80.18
2018-12-26T02:04:41.421Z,79.97
2018-12-26T02:05:41.514Z,79.97
2018-12-26T02:06:41.622Z,80.22
2018-12-26T02:07:41.733Z,79.91
2018-12-26T02:08:41.818Z,80.53
2018-12-26T02:09:41.903Z,80.63
2018-12-26T02:10:41.996Z,80.01
2018-12-26T02:11:42.135Z,80.39
2018-12-26T02:12:42.185Z,80.22
2018-12-26T02:13:42.269Z,79.91
2018-12-26T02:14:42.360Z,80.11
2018-12-26T02:15:42.472Z,80.01
2018-12-26T02:16:42.550Z,80.08
2018-12-26T02:17:42.681Z,79.91
2018-12-26T02:18:42.768Z,80.01
2018-12-26T02:19:42.997Z,80.22
2018-12-26T02:20:42.949Z,79.80
2018-12-26T02:21:43.062Z,79.66
2018-12-26T02:22:43.148Z,79.46
2018-12-26T02:23:43.274Z,79.49
2018-12-26T02:24:43.338Z,79.39
2018-12-26T02:25:43.450Z,79.60
2018-12-26T02:26:43.540Z,79.70
2018-12-26T02:27:43.940Z,80.11
2018-12-26T02:28:43.813Z,79.91
2018-12-26T02:29:43.806Z,80.11
2018-12-26T02:30:43.913Z,79.80
2018-12-26T02:31:43.988Z,79.91
2018-12-26T02:32:44.102Z,79.39
2018-12-26T02:33:44.186Z,80.01
2018-12-26T02:34:44.271Z,80.01
2018-12-26T02:35:44.398Z,80.11
2018-12-26T02:36:44.624Z,79.91
2018-12-26T02:37:44.617Z,79.91
2018-12-26T02:38:44.695Z,79.70
2018-12-26T02:39:44.776Z,80.11
2018-12-26T02:40:44.902Z,80.01
2018-12-26T02:41:44.982Z,80.01
2018-12-26T02:42:45.101Z,80.22
2018-12-26T02:43:45.201Z,80.43
2018-12-26T02:44:45.367Z,79.91
2018-12-26T02:45:45.365Z,80.01
2018-12-26T02:46:45.444Z,79.91
2018-12-26T02:47:45.553Z,79.70
2018-12-26T02:48:45.631Z,80.01
2018-12-26T02:49:45.706Z,79.70
2018-12-26T02:50:45.819Z,80.11
2018-12-26T02:51:45.911Z,80.01
2018-12-26T02:52:46.083Z,79.91
2018-12-26T02:53:46.107Z,80.01
2018-12-26T02:54:46.178Z,80.01
2018-12-26T02:55:46.272Z,79.80
2018-12-26T02:56:49.029Z,80.32
2018-12-26T02:57:46.486Z,80.32
2018-12-26T02:58:46.571Z,79.80
2018-12-26T02:59:46.658Z,79.91
2018-12-26T03:00:46.844Z,79.80
2018-12-26T03:01:46.853Z,80.01
2018-12-26T03:02:46.996Z,80.01
2018-12-26T03:03:47.070Z,79.91
2018-12-26T03:04:47.136Z,79.80
2018-12-26T03:05:47.246Z,79.91
2018-12-26T03:06:47.324Z,79.70
2018-12-26T03:07:47.438Z,79.91
2018-12-26T03:08:47.539Z,80.01
2018-12-26T03:09:47.763Z,79.80
2018-12-26T03:10:47.728Z,79.91
2018-12-26T03:11:47.805Z,80.01
2018-12-26T03:12:47.881Z,80.01
2018-12-26T03:13:47.999Z,79.94
2018-12-26T03:14:48.082Z,80.01
2018-12-26T03:15:48.194Z,80.11
2018-12-26T03:16:48.262Z,79.80
2018-12-26T03:17:48.474Z,79.80
2018-12-26T03:18:48.472Z,79.84
2018-12-26T03:19:48.573Z,79.63
2018-12-26T03:20:48.681Z,80.22
2018-12-26T03:21:48.759Z,79.49
2018-12-26T03:22:48.843Z,80.26
2018-12-26T03:23:48.983Z,80.43
2018-12-26T03:24:49.054Z,80.32
2018-12-26T03:25:49.264Z,80.43
2018-12-26T03:26:56.074Z,80.32
2018-12-26T03:27:50.316Z,80.43
2018-12-26T03:28:49.435Z,80.63
2018-12-26T03:29:49.509Z,80.63
2018-12-26T03:30:49.638Z,80.22
2018-12-26T03:31:49.715Z,80.43
2018-12-26T03:32:49.811Z,80.63
2018-12-26T03:33:49.959Z,80.32
2018-12-26T03:34:49.957Z,80.74
2018-12-26T03:35:50.090Z,80.74
2018-12-26T03:36:50.165Z,80.94
2018-12-26T03:37:50.256Z,80.98
2018-12-26T03:38:50.485Z,80.84
2018-12-26T03:39:50.471Z,80.84
2018-12-26T03:40:50.545Z,80.84
2018-12-26T03:41:50.665Z,81.05
2018-12-26T03:42:50.868Z,81.19
2018-12-26T03:43:50.860Z,81.09
2018-12-26T03:44:50.944Z,80.74
2018-12-26T03:45:51.045Z,80.88
2018-12-26T03:46:51.106Z,81.15
2018-12-26T03:47:51.215Z,81.15
2018-12-26T03:48:51.326Z,81.19
2018-12-26T03:49:51.422Z,81.05
2018-12-26T03:50:51.811Z,81.15
2018-12-26T03:51:51.574Z,81.15
2018-12-26T03:52:51.691Z,80.94
2018-12-26T03:53:51.784Z,81.15
2018-12-26T03:54:51.874Z,81.56
2018-12-26T03:55:51.974Z,81.35
2018-12-26T03:56:52.030Z,81.60
2018-12-26T03:57:52.130Z,80.84
2018-12-26T03:58:52.326Z,81.49
2018-12-26T03:59:52.334Z,81.35
2018-12-26T04:00:52.435Z,80.84
2018-12-26T04:01:52.495Z,81.39
2018-12-26T04:02:52.602Z,81.56
2018-12-26T04:03:52.706Z,81.46
2018-12-26T04:04:53.016Z,81.77
2018-12-26T04:05:52.896Z,81.56
2018-12-26T04:06:53.012Z,81.87
2018-12-26T04:07:53.026Z,81.56
2018-12-26T04:08:53.162Z,81.87
2018-12-26T04:09:53.245Z,81.56
2018-12-26T04:10:53.346Z,81.56
2018-12-26T04:11:53.421Z,81.39
2018-12-26T04:12:53.514Z,81.77
2018-12-26T04:13:53.609Z,81.87
2018-12-26T04:14:53.775Z,81.67
2018-12-26T04:15:53.910Z,81.77
2018-12-26T04:16:53.999Z,81.67
2018-12-26T04:17:54.097Z,81.67
2018-12-26T04:18:54.220Z,81.67
2018-12-26T04:19:54.319Z,82.08
2018-12-26T04:20:54.421Z,81.15
2018-12-26T04:21:54.507Z,81.67
2018-12-26T04:22:54.639Z,81.77
2018-12-26T04:23:54.789Z,81.67
2018-12-26T04:24:54.826Z,81.91
2018-12-26T04:25:54.931Z,82.08
2018-12-26T04:26:55.010Z,81.70
2018-12-26T04:27:55.109Z,82.01
2018-12-26T04:28:55.230Z,82.50
2018-12-26T04:29:55.326Z,82.53
2018-12-26T04:30:55.427Z,82.60
2018-12-26T04:31:55.601Z,82.74
2018-12-26T04:32:55.613Z,82.95
2018-12-26T04:33:55.729Z,82.39
2018-12-26T04:34:55.806Z,82.29
2018-12-26T04:35:55.918Z,82.32
2018-12-26T04:36:56.015Z,82.90
2018-12-26T04:37:56.133Z,81.98
2018-12-26T04:38:56.263Z,82.01
2018-12-26T04:39:56.404Z,81.87
2018-12-26T04:40:56.430Z,82.43
2018-12-26T04:41:56.519Z,82.60
2018-12-26T04:42:56.638Z,82.64
2018-12-26T04:43:56.752Z,83.36
2018-12-26T04:44:56.834Z,82.84
2018-12-26T04:45:56.961Z,83.05
2018-12-26T04:46:57.050Z,82.74
2018-12-26T04:47:57.386Z,83.22
2018-12-26T04:48:57.195Z,83.46
2018-12-26T04:49:57.235Z,83.25
2018-12-26T04:50:57.352Z,83.15
2018-12-26T04:51:57.448Z,83.25
2018-12-26T04:52:57.539Z,83.01
2018-12-26T04:53:57.655Z,83.05
2018-12-26T04:54:57.710Z,83.56
2018-12-26T04:55:57.894Z,83.56
2018-12-26T04:56:58.024Z,83.15
2018-12-26T04:57:58.092Z,83.11
2018-12-26T04:58:58.230Z,83.15
2018-12-26T04:59:58.301Z,83.15
2018-12-26T05:00:58.394Z,83.05
2018-12-26T05:01:58.531Z,83.36
2018-12-26T05:02:58.601Z,83.36
2018-12-26T05:03:58.761Z,83.53
2018-12-26T05:04:58.852Z,84.66
2018-12-26T05:05:58.899Z,83.94
2018-12-26T05:06:59.015Z,83.77
2018-12-26T05:07:59.099Z,83.67
2018-12-26T05:08:59.222Z,84.19
2018-12-26T05:09:59.283Z,83.67
2018-12-26T05:10:59.402Z,83.77
2018-12-26T05:11:59.526Z,83.36
2018-12-26T05:12:59.722Z,84.08
2018-12-26T05:13:59.726Z,84.50
2018-12-26T05:14:59.790Z,85.02
2018-12-26T05:15:59.920Z,84.50
2018-12-26T05:17:00.028Z,84.70
2018-12-26T05:18:00.112Z,84.08
2018-12-26T05:19:00.219Z,84.70
2018-12-26T05:20:00.335Z,84.81
2018-12-26T05:21:00.489Z,84.70
2018-12-26T05:22:00.509Z,84.70
2018-12-26T05:23:00.596Z,84.08
2018-12-26T05:24:01.108Z,84.70
2018-12-26T05:25:00.795Z,84.60
2018-12-26T05:26:00.896Z,84.81
2018-12-26T05:27:01.010Z,84.70
2018-12-26T05:28:01.078Z,84.70
2018-12-26T05:29:01.278Z,84.91
2018-12-26T05:30:01.280Z,84.60
2018-12-26T05:31:01.380Z,84.60
2018-12-26T05:32:01.494Z,84.39
2018-12-26T05:33:01.573Z,84.50
2018-12-26T05:34:01.699Z,84.81
2018-12-26T05:35:01.780Z,85.02
2018-12-26T05:36:01.883Z,85.02
2018-12-26T05:37:02.042Z,84.81
2018-12-26T05:38:02.123Z,84.39
2018-12-26T05:39:02.184Z,84.91
2018-12-26T05:40:02.280Z,84.91
2018-12-26T05:41:02.380Z,84.81
2018-12-26T05:42:02.496Z,84.70
2018-12-26T05:43:02.573Z,84.91
2018-12-26T05:44:02.696Z,84.91
2018-12-26T05:45:02.791Z,84.08
2018-12-26T05:46:03.259Z,84.81
2018-12-26T05:47:03.012Z,84.95
2018-12-26T05:48:03.094Z,84.81
2018-12-26T05:49:03.218Z,85.11
2018-12-26T05:50:03.293Z,85.02
2018-12-26T05:51:03.388Z,85.11
2018-12-26T05:52:03.521Z,86.57
2018-12-26T05:53:03.602Z,86.40
2018-12-26T05:54:03.821Z,86.25
2018-12-26T05:55:03.802Z,86.15
2018-12-26T05:56:03.884Z,86.09
2018-12-26T05:57:04.024Z,86.19
2018-12-26T05:58:04.091Z,86.09
2018-12-26T05:59:04.198Z,86.19
2018-12-26T06:00:04.315Z,86.19
2018-12-26T06:01:04.397Z,86.19
2018-12-26T06:02:04.581Z,86.19
2018-12-26T06:03:04.577Z,86.09
2018-12-26T06:04:04.709Z,86.71
2018-12-26T06:05:04.801Z,86.40
2018-12-26T06:06:04.883Z,86.71
2018-12-26T06:07:05.011Z,86.81
2018-12-26T06:08:05.067Z,86.81
2018-12-26T06:09:05.463Z,87.43
2018-12-26T06:10:05.365Z,87.33
2018-12-26T06:11:05.373Z,87.54
2018-12-26T06:12:05.496Z,87.64
2018-12-26T06:13:05.586Z,88.78
2018-12-26T06:14:05.700Z,89.13
2018-12-26T06:15:05.805Z,88.82
2018-12-26T06:16:05.889Z,88.71
2018-12-26T06:17:06.007Z,89.03
2018-12-26T06:18:08.266Z,89.44
2018-12-26T06:19:06.275Z,89.13
2018-12-26T06:20:06.330Z,89.65
2018-12-26T06:21:06.379Z,89.44
2018-12-26T06:22:06.495Z,89.44
2018-12-26T06:23:06.585Z,90.16
2018-12-26T06:24:06.684Z,89.75
2018-12-26T06:25:06.813Z,90.00
2018-12-26T06:26:06.870Z,89.96
2018-12-26T06:27:07.111Z,89.96
2018-12-26T06:28:07.082Z,90.06
2018-12-26T06:29:07.176Z,90.41
2018-12-26T06:30:07.302Z,90.41
2018-12-26T06:31:07.426Z,90.58
2018-12-26T06:32:07.495Z,90.58
2018-12-26T06:33:07.578Z,90.62
2018-12-26T06:34:07.679Z,90.58
2018-12-26T06:35:07.898Z,90.47
2018-12-26T06:36:07.846Z,90.62
2018-12-26T06:37:07.982Z,90.52
2018-12-26T06:38:08.080Z,90.10
2018-12-26T06:39:08.180Z,90.37
2018-12-26T06:40:08.323Z,90.58
2018-12-26T06:41:08.380Z,90.37
2018-12-26T06:42:08.495Z,90.52
2018-12-26T06:43:08.586Z,90.47
2018-12-26T06:44:08.658Z,90.41
2018-12-26T06:45:08.812Z,90.62
2018-12-26T06:46:08.868Z,90.00
2018-12-26T06:47:08.966Z,90.47
2018-12-26T06:48:09.059Z,90.72
2018-12-26T06:49:09.143Z,90.41
2018-12-26T06:50:09.293Z,90.72
2018-12-26T06:51:09.453Z,91.03
2018-12-26T06:52:09.501Z,90.72
2018-12-26T06:53:09.608Z,90.99
2018-12-26T06:54:09.673Z,91.03
2018-12-26T06:55:09.799Z,91.45
2018-12-26T06:56:09.899Z,91.45
2018-12-26T06:57:10.000Z,91.24
2018-12-26T06:58:10.144Z,91.55
2018-12-26T06:59:10.207Z,91.76
2018-12-26T07:00:10.415Z,91.66
2018-12-26T07:01:10.394Z,91.86
2018-12-26T07:02:10.493Z,91.55
2018-12-26T07:03:10.610Z,91.66
2018-12-26T07:04:10.692Z,91.66
2018-12-26T07:05:10.835Z,91.55
2018-12-26T07:06:10.870Z,91.76
2018-12-26T07:07:10.988Z,92.18
2018-12-26T07:08:11.240Z,91.76
2018-12-26T07:09:11.208Z,91.76
2018-12-26T07:10:11.337Z,91.45
2018-12-26T07:11:11.393Z,91.66
2018-12-26T07:12:11.509Z,91.66
2018-12-26T07:13:11.628Z,91.45
2018-12-26T07:14:11.717Z,91.55
2018-12-26T07:15:11.826Z,92.59
2018-12-26T07:16:11.935Z,92.49
2018-12-26T07:17:11.973Z,92.28
2018-12-26T07:18:12.112Z,92.49
2018-12-26T07:19:12.205Z,92.59
2018-12-26T07:20:12.311Z,92.49
2018-12-26T07:21:12.487Z,92.28
2018-12-26T07:22:12.500Z,92.18
2018-12-26T07:23:12.612Z,92.59
2018-12-26T07:24:12.761Z,92.38
2018-12-26T07:25:13.012Z,92.59
2018-12-26T07:26:12.876Z,92.49
2018-12-26T07:27:12.979Z,92.43
2018-12-26T07:28:13.098Z,92.28
2018-12-26T07:29:13.212Z,92.38
2018-12-26T07:30:13.290Z,92.28
2018-12-26T07:31:13.383Z,92.80
2018-12-26T07:32:13.522Z,92.49
2018-12-26T07:33:13.682Z,92.49
2018-12-26T07:34:13.728Z,92.43
2018-12-26T07:35:13.806Z,92.59
2018-12-26T07:36:13.883Z,92.49
2018-12-26T07:37:14.001Z,92.38
2018-12-26T07:38:14.116Z,92.69
2018-12-26T07:39:14.211Z,92.69
2018-12-26T07:40:16.129Z,92.80
2018-12-26T07:41:14.506Z,92.59
2018-12-26T07:42:14.505Z,92.49
2018-12-26T07:43:14.620Z,92.28
2018-12-26T07:44:14.698Z,92.38
2018-12-26T07:45:14.823Z,92.38
2018-12-26T07:46:14.889Z,92.38
2018-12-26T07:47:14.986Z,92.49
2018-12-26T07:48:15.125Z,92.49
2018-12-26T07:49:15.256Z,92.28
2018-12-26T07:50:15.315Z,92.59
2018-12-26T07:51:15.397Z,92.38
2018-12-26T07:52:15.480Z,92.38
2018-12-26T07:53:15.613Z,92.49
2018-12-26T07:54:15.713Z,92.69
2018-12-26T07:55:15.819Z,92.59
2018-12-26T07:56:15.935Z,92.38
2018-12-26T07:57:16.098Z,92.38
2018-12-26T07:58:17.687Z,92.49
2018-12-26T07:59:16.223Z,92.59
2018-12-26T08:00:16.370Z,92.49
2018-12-26T08:01:16.483Z,92.38
2018-12-26T08:02:16.558Z,93.41
2018-12-26T08:03:16.677Z,93.52
2018-12-26T08:04:16.772Z,93.73
2018-12-26T08:05:16.863Z,93.41
2018-12-26T08:06:17.006Z,93.41
2018-12-26T08:07:17.082Z,93.31
2018-12-26T08:08:17.191Z,93.10
2018-12-26T08:09:17.276Z,93.41
2018-12-26T08:10:17.373Z,93.41
2018-12-26T08:11:17.499Z,93.21
2018-12-26T08:12:17.574Z,93.10
2018-12-26T08:13:17.729Z,93.31
2018-12-26T08:14:17.905Z,93.62
2018-12-26T08:15:17.912Z,93.48
2018-12-26T08:16:17.985Z,93.41
2018-12-26T08:17:18.084Z,93.52
2018-12-26T08:18:18.200Z,93.41
2018-12-26T08:19:18.284Z,93.83
2018-12-26T08:20:18.408Z,93.37
2018-12-26T08:21:18.507Z,93.37
2018-12-26T08:22:18.651Z,93.41
2018-12-26T08:23:18.758Z,93.31
2018-12-26T08:24:18.774Z,93.31
2018-12-26T08:25:18.902Z,93.21
2018-12-26T08:26:18.988Z,93.37
2018-12-26T08:27:19.060Z,93.58
2018-12-26T08:28:26.333Z,93.79
2018-12-26T08:29:20.292Z,93.83
2018-12-26T08:30:19.500Z,93.62
2018-12-26T08:31:19.501Z,93.93
2018-12-26T08:32:19.581Z,93.83
2018-12-26T08:33:19.686Z,94.10
2018-12-26T08:34:19.780Z,94.97
2018-12-26T08:35:19.898Z,94.24
2018-12-26T08:36:19.998Z,94.04
2018-12-26T08:37:20.079Z,94.04
2018-12-26T08:38:20.245Z,94.24
2018-12-26T08:39:20.242Z,94.66
2018-12-26T08:40:20.377Z,94.87
2018-12-26T08:41:20.509Z,94.35
2018-12-26T08:42:20.579Z,94.35
2018-12-26T08:43:20.697Z,94.24
2018-12-26T08:44:20.788Z,94.14
2018-12-26T08:45:20.900Z,94.14
2018-12-26T08:46:21.037Z,94.35
2018-12-26T08:47:21.124Z,93.99
2018-12-26T08:48:21.228Z,94.24
2018-12-26T08:49:21.285Z,95.28
2018-12-26T08:50:21.388Z,95.28
2018-12-26T08:51:21.511Z,95.03
2018-12-26T08:52:21.583Z,95.18
2018-12-26T08:53:21.716Z,95.28
2018-12-26T08:54:21.849Z,95.65
2018-12-26T08:55:22.018Z,95.54
2018-12-26T08:56:22.001Z,95.44
2018-12-26T08:57:22.098Z,95.07
2018-12-26T08:58:22.198Z,95.49
2018-12-26T08:59:22.302Z,96.01
2018-12-26T09:00:22.427Z,96.27
2018-12-26T09:01:22.512Z,97.04
2018-12-26T09:02:22.577Z,96.11
2018-12-26T09:03:22.820Z,96.21
2018-12-26T09:04:22.815Z,96.83
2018-12-26T09:05:22.946Z,95.80
2018-12-26T09:06:23.058Z,95.96
2018-12-26T09:07:23.110Z,96.31
2018-12-26T09:08:23.204Z,95.39
2018-12-26T09:09:23.344Z,95.90
2018-12-26T09:10:23.546Z,96.11
2018-12-26T09:11:23.639Z,96.37
2018-12-26T09:12:23.618Z,96.89
2018-12-26T09:13:23.712Z,97.04
2018-12-26T09:14:23.821Z,96.17
2018-12-26T09:15:23.976Z,96.21
2018-12-26T09:16:24.031Z,96.31
2018-12-26T09:17:24.121Z,96.42
2018-12-26T09:18:24.222Z,96.79
2018-12-26T09:19:24.446Z,96.73
2018-12-26T09:20:24.385Z,96.83
2018-12-26T09:21:24.525Z,96.52
2018-12-26T09:22:24.603Z,96.37
2018-12-26T09:23:24.703Z,96.37
2018-12-26T09:24:24.851Z,95.90
2018-12-26T09:25:24.913Z,95.80
2018-12-26T09:26:25.003Z,95.90
2018-12-26T09:27:25.139Z,95.70
2018-12-26T09:28:25.258Z,95.86
2018-12-26T09:29:25.372Z,95.80
2018-12-26T09:30:25.413Z,95.75
2018-12-26T09:31:25.528Z,96.31
2018-12-26T09:32:25.628Z,95.86
2018-12-26T09:33:25.736Z,96.06
2018-12-26T09:34:25.878Z,95.90
2018-12-26T09:35:25.959Z,95.80
2018-12-26T09:36:26.200Z,95.90
2018-12-26T09:37:26.143Z,96.52
2018-12-26T09:38:26.235Z,96.01
2018-12-26T09:39:26.387Z,95.70
2018-12-26T09:40:26.441Z,95.96
2018-12-26T09:41:26.562Z,95.80
2018-12-26T09:42:26.621Z,95.90
2018-12-26T09:43:26.721Z,95.80
2018-12-26T09:44:27.009Z,95.75
2018-12-26T09:45:26.955Z,95.65
2018-12-26T09:46:27.055Z,96.01
2018-12-26T09:47:27.143Z,95.80
2018-12-26T09:48:27.211Z,95.75
2018-12-26T09:49:27.355Z,95.86
2018-12-26T09:50:27.437Z,95.80
2018-12-26T09:51:27.554Z,95.86
2018-12-26T09:52:27.697Z,95.34
2018-12-26T09:53:27.702Z,94.82
2018-12-26T09:54:28.097Z,95.44
2018-12-26T09:55:27.927Z,95.75
2018-12-26T09:56:28.043Z,95.54
2018-12-26T09:57:28.130Z,95.75
2018-12-26T09:58:28.228Z,95.75
2018-12-26T09:59:28.371Z,95.24
2018-12-26T10:00:28.472Z,95.86
2018-12-26T10:01:28.522Z,95.75
2018-12-26T10:02:28.610Z,95.86
2018-12-26T10:03:28.709Z,95.65
2018-12-26T10:04:28.830Z,95.24
2018-12-26T10:05:28.940Z,95.34
2018-12-26T10:06:29.069Z,95.65
2018-12-26T10:07:29.124Z,95.75
2018-12-26T10:08:29.277Z,95.75
2018-12-26T10:09:29.407Z,95.65
2018-12-26T10:10:29.441Z,95.34
2018-12-26T10:11:29.515Z,95.14
2018-12-26T10:12:29.645Z,96.69
2018-12-26T10:13:29.773Z,97.41
2018-12-26T10:14:29.886Z,97.06
2018-12-26T10:15:29.966Z,96.75
2018-12-26T10:16:30.069Z,95.86
2018-12-26T10:17:30.319Z,96.85
2018-12-26T10:18:30.282Z,96.64
2018-12-26T10:19:30.397Z,96.64
2018-12-26T10:20:30.476Z,96.54
2018-12-26T10:21:30.572Z,96.44
2018-12-26T10:22:30.695Z,96.44
2018-12-26T10:23:30.776Z,96.85
2018-12-26T10:24:30.918Z,96.69
2018-12-26T10:25:31.042Z,96.85
2018-12-26T10:26:31.071Z,96.69
2018-12-26T10:27:31.190Z,96.64
2018-12-26T10:28:31.284Z,96.69
2018-12-26T10:29:31.389Z,96.75
2018-12-26T10:30:31.473Z,95.81
2018-12-26T10:31:31.574Z,96.12
2018-12-26T10:32:31.691Z,96.54
2018-12-26T10:33:31.837Z,96.75
2018-12-26T10:34:31.856Z,96.85
2018-12-26T10:35:31.962Z,96.64
2018-12-26T10:36:32.078Z,96.95
2018-12-26T10:37:32.196Z,96.54
2018-12-26T10:38:32.286Z,96.75
2018-12-26T10:39:32.610Z,96.95
2018-12-26T10:40:32.479Z,96.85
2018-12-26T10:41:32.589Z,96.85
2018-12-26T10:42:32.682Z,96.85
2018-12-26T10:43:32.807Z,96.75
2018-12-26T10:44:32.897Z,96.95
2018-12-26T10:45:32.972Z,96.33
2018-12-26T10:46:33.079Z,96.48
2018-12-26T10:47:33.208Z,96.79
2018-12-26T10:48:33.273Z,96.79
2018-12-26T10:49:33.411Z,96.69
2018-12-26T10:50:33.602Z,96.79
2018-12-26T10:51:33.576Z,96.89
2018-12-26T10:52:33.687Z,96.89
2018-12-26T10:53:33.777Z,96.64
2018-12-26T10:54:33.923Z,96.44
2018-12-26T10:55:33.992Z,96.95
2018-12-26T10:56:34.096Z,96.64
2018-12-26T10:57:34.211Z,96.54
2018-12-26T10:58:34.418Z,96.64
2018-12-26T10:59:34.429Z,96.85
2018-12-26T11:00:34.495Z,97.06
2018-12-26T11:01:34.600Z,96.64
2018-12-26T11:02:34.740Z,96.54
2018-12-26T11:03:34.790Z,96.64
2018-12-26T11:04:34.915Z,96.54
2018-12-26T11:05:35.004Z,96.75
2018-12-26T11:06:35.146Z,97.00
2018-12-26T11:07:35.217Z,96.89
2018-12-26T11:08:35.298Z,96.95
2018-12-26T11:09:35.389Z,96.64
2018-12-26T11:10:35.501Z,96.85
2018-12-26T11:11:35.612Z,96.54
2018-12-26T11:12:35.726Z,96.95
2018-12-26T11:13:35.820Z,96.85
2018-12-26T11:14:36.012Z,96.54
2018-12-26T11:15:35.976Z,96.75
2018-12-26T11:16:36.085Z,96.54
2018-12-26T11:17:36.254Z,97.06
2018-12-26T11:18:36.296Z,96.95
2018-12-26T11:19:36.399Z,97.36
2018-12-26T11:20:36.515Z,97.36
2018-12-26T11:21:36.615Z,97.47
2018-12-26T11:22:36.785Z,97.57
2018-12-26T11:23:36.888Z,97.57
2018-12-26T11:24:36.918Z,97.16
2018-12-26T11:25:37.035Z,97.06
2018-12-26T11:26:37.116Z,97.47
2018-12-26T11:27:37.236Z,97.57
2018-12-26T11:28:37.299Z,97.26
2018-12-26T11:29:37.417Z,97.78
2018-12-26T11:30:37.566Z,97.57
2018-12-26T11:31:37.748Z,97.36
2018-12-26T11:32:37.744Z,97.78
2018-12-26T11:33:37.818Z,97.36
2018-12-26T11:34:37.934Z,97.88
2018-12-26T11:35:38.053Z,97.57
2018-12-26T11:36:38.134Z,97.47
2018-12-26T11:37:38.282Z,97.47
2018-12-26T11:38:38.341Z,97.88
2018-12-26T11:39:38.531Z,97.67
2018-12-26T11:40:38.548Z,97.26
2018-12-26T11:41:38.635Z,97.78
2018-12-26T11:42:38.761Z,98.19
2018-12-26T11:43:38.835Z,97.67
2018-12-26T11:44:38.919Z,97.57
2018-12-26T11:45:39.060Z,97.78
2018-12-26T11:46:39.138Z,97.99
2018-12-26T11:47:39.307Z,98.50
2018-12-26T11:48:39.318Z,98.71
2018-12-26T11:49:39.411Z,98.30
2018-12-26T11:50:39.534Z,97.99
2018-12-26T11:51:39.625Z,98.40
2018-12-26T11:52:39.741Z,98.61
2018-12-26T11:53:39.829Z,98.50
2018-12-26T11:54:39.926Z,98.71
2018-12-26T11:55:40.146Z,98.82
2018-12-26T11:56:40.090Z,98.50
2018-12-26T11:57:40.229Z,98.50
2018-12-26T11:58:40.310Z,98.71
2018-12-26T11:59:40.417Z,98.92
2018-12-26T12:00:40.567Z,99.02
2018-12-26T12:01:40.613Z,98.40
2018-12-26T12:02:40.723Z,98.61
2018-12-26T12:03:40.874Z,98.71
2018-12-26T12:04:40.995Z,98.19
2018-12-26T12:05:41.039Z,98.09
2018-12-26T12:06:41.120Z,98.13
2018-12-26T12:07:41.238Z,98.71
2018-12-26T12:08:41.332Z,98.82
2018-12-26T12:09:41.420Z,98.61
2018-12-26T12:10:41.565Z,98.61
2018-12-26T12:11:41.632Z,98.71
2018-12-26T12:12:41.836Z,98.71
2018-12-26T12:13:41.803Z,98.50
2018-12-26T12:14:41.922Z,98.61
2018-12-26T12:15:42.325Z,98.71
2018-12-26T12:16:42.112Z,99.02
2018-12-26T12:17:42.217Z,98.50
2018-12-26T12:18:42.314Z,98.40
2018-12-26T12:19:42.412Z,99.33
2018-12-26T12:20:42.649Z,99.23
2018-12-26T12:21:42.613Z,99.64
2018-12-26T12:22:42.717Z,99.02
2018-12-26T12:23:42.851Z,99.23
2018-12-26T12:24:42.921Z,99.43
2018-12-26T12:25:43.037Z,99.43
2018-12-26T12:26:43.134Z,99.43
2018-12-26T12:27:43.235Z,99.64
2018-12-26T12:28:43.474Z,99.13
2018-12-26T12:29:43.434Z,99.64
2018-12-26T12:30:43.561Z,99.74
2018-12-26T12:31:43.624Z,99.23
2018-12-26T12:32:43.743Z,99.43
2018-12-26T12:33:43.888Z,99.54
2018-12-26T12:34:43.943Z,99.43
2018-12-26T12:35:44.055Z,99.43
2018-12-26T12:36:44.189Z,99.85
2018-12-26T12:37:44.202Z,99.99
2018-12-26T12:38:44.377Z,99.43
2018-12-26T12:39:44.436Z,99.54
2018-12-26T12:40:44.558Z,99.99
2018-12-26T12:41:44.636Z,99.99
2018-12-26T12:42:44.741Z,99.54
2018-12-26T12:43:44.867Z,99.74
2018-12-26T12:44:44.955Z,99.74
2018-12-26T12:45:45.206Z,99.99
2018-12-26T12:46:45.161Z,99.99
2018-12-26T12:47:45.258Z,99.85
2018-12-26T12:48:45.387Z,99.99
2018-12-26T12:49:45.463Z,99.85
2018-12-26T12:50:45.594Z,99.99
2018-12-26T12:51:45.678Z,99.85
2018-12-26T12:52:45.779Z,99.85
2018-12-26T12:53:46.030Z,99.74
2018-12-26T12:54:45.980Z,99.95